Time;durP1;ratioP1;P1;durP2;ratioP2;P2;SDS_P1;SDS_P2;PMS_P1;PMS_P2;Temp;Humidity;BMP_temperature;BMP_pressure;BME280_temperature;BME280_humidity;BME280_pressure;Samples;Min_cycle;Max_cycle;Signal;HPM_P1;HPM_P2
2021/05/16 14:31:56;;;;;;;3.63;1.50;;;21.50;57.40;;;;;;5090828;28;20114;-59
2021/05/16 14:34:22;;;;;;;2.75;1.27;;;21.50;57.40;;;;;;5071253;28;20045;-60
2021/05/16 14:36:47;;;;;;;3.40;1.40;;;21.50;57.30;;;;;;5070480;28;20036;-59
2021/05/16 14:39:13;;;;;;;5.30;1.50;;;21.60;57.30;;;;;;5070901;28;20029;-59
2021/05/16 14:41:38;;;;;;;3.33;1.20;;;21.60;57.30;;;;;;5070595;28;20040;-59
2021/05/16 14:44:04;;;;;;;6.80;1.30;;;21.60;57.20;;;;;;5052922;28;20021;-59
2021/05/16 14:46:30;;;;;;;3.95;1.63;;;21.60;57.10;;;;;;5071037;28;20020;-59
2021/05/16 14:48:56;;;;;;;3.15;1.33;;;21.60;57.10;;;;;;5070398;28;20435;-59
2021/05/16 14:51:28;;;;;;;6.18;1.48;;;21.70;57.10;;;;;;5070602;28;20029;-59
2021/05/16 14:53:58;;;;;;;3.83;1.30;;;21.70;57.00;;;;;;5070582;28;20028;-59
2021/05/16 14:56:24;;;;;;;7.22;1.15;;;21.70;57.00;;;;;;5070265;28;20021;-59
2021/05/16 14:58:50;;;;;;;4.93;1.73;;;21.80;57.10;;;;;;5070470;28;20036;-56
2021/05/16 15:01:15;;;;;;;23.50;1.95;;;21.80;57.10;;;;;;5069777;28;20025;-59
2021/05/16 15:03:41;;;;;;;5.47;1.60;;;21.80;57.10;;;;;;5070448;28;20021;-59
2021/05/16 15:06:07;;;;;;;7.97;1.58;;;21.80;57.10;;;;;;5070503;28;20104;-58
2021/05/16 15:08:33;;;;;;;14.27;2.10;;;21.80;57.10;;;;;;5069928;28;20387;-56
2021/05/16 15:10:59;;;;;;;5.07;1.38;;;21.90;57.00;;;;;;5070382;28;20064;-59
2021/05/16 15:13:25;;;;;;;4.22;1.35;;;21.80;56.70;;;;;;5069962;28;20024;-59
2021/05/16 15:15:51;;;;;;;11.90;1.60;;;21.90;56.60;;;;;;5070210;28;20067;-58
2021/05/16 15:18:16;;;;;;;9.57;1.70;;;21.90;56.50;;;;;;5069938;28;20064;-58
2021/05/16 15:20:42;;;;;;;6.82;1.15;;;21.90;56.40;;;;;;5069815;28;20029;-59
2021/05/16 15:23:07;;;;;;;9.20;1.60;;;21.90;56.30;;;;;;5069640;28;20025;-59
2021/05/16 15:25:33;;;;;;;3.78;1.23;;;21.90;56.30;;;;;;5069645;28;20044;-59
2021/05/16 15:27:59;;;;;;;8.52;1.55;;;21.90;56.20;;;;;;5069770;28;20436;-59
2021/05/16 15:30:25;;;;;;;3.95;1.50;;;21.80;56.10;;;;;;5069804;28;20064;-58
2021/05/16 15:32:53;;;;;;;3.33;1.13;;;21.80;56.00;;;;;;5069508;28;20031;-59
2021/05/16 15:35:19;;;;;;;4.63;1.10;;;21.80;56.00;;;;;;5069854;28;20068;-59
2021/05/16 15:37:44;;;;;;;5.00;1.25;;;21.80;56.10;;;;;;5069612;28;20056;-59
2021/05/16 15:40:11;;;;;;;3.55;1.50;;;21.80;56.00;;;;;;5069143;28;20039;-61
2021/05/16 15:42:37;;;;;;;7.25;1.13;;;21.80;56.00;;;;;;5042752;28;20025;-61
2021/05/16 15:45:04;;;;;;;5.22;0.98;;;21.80;56.00;;;;;;5056374;28;20397;-59
2021/05/16 15:47:30;;;;;;;3.13;1.17;;;21.80;56.00;;;;;;5056133;28;20447;-59
2021/05/16 15:49:56;;;;;;;3.00;1.23;;;21.80;56.10;;;;;;5055947;28;20035;-59
2021/05/16 15:52:21;;;;;;;6.50;0.93;;;21.80;56.10;;;;;;5056223;28;20424;-60
2021/05/16 15:54:47;;;;;;;8.82;1.17;;;21.80;56.10;;;;;;5056466;28;20025;-59
2021/05/16 15:57:14;;;;;;;2.65;0.95;;;21.70;56.00;;;;;;5055745;28;20032;-59
2021/05/16 15:59:39;;;;;;;4.65;1.00;;;21.80;56.10;;;;;;5056158;28;20037;-59
2021/05/16 16:02:05;;;;;;;1.50;0.85;;;21.70;56.00;;;;;;5056100;28;20025;-59
2021/05/16 16:04:31;;;;;;;3.03;1.35;;;21.70;56.00;;;;;;5055953;28;20021;-59
2021/05/16 16:06:56;;;;;;;2.40;1.10;;;21.70;56.00;;;;;;5055715;28;20025;-59
2021/05/16 16:09:22;;;;;;;2.53;0.93;;;21.70;55.90;;;;;;5055448;28;20025;-59
2021/05/16 16:11:48;;;;;;;2.67;0.85;;;21.70;55.90;;;;;;5055992;28;20120;-59
2021/05/16 16:14:13;;;;;;;4.00;0.95;;;21.70;55.90;;;;;;5055578;28;20075;-59
2021/05/16 16:16:39;;;;;;;1.70;0.93;;;21.70;55.90;;;;;;5038169;28;20032;-60
2021/05/16 16:19:05;;;;;;;2.72;0.85;;;21.70;55.90;;;;;;5055709;28;20025;-59
2021/05/16 16:21:32;;;;;;;2.00;0.80;;;21.70;55.90;;;;;;5055406;28;20037;-60
2021/05/16 16:23:57;;;;;;;4.95;1.35;;;21.70;55.80;;;;;;5055117;28;20478;-60
2021/05/16 16:26:23;;;;;;;11.70;1.67;;;21.70;55.80;;;;;;5036217;28;20026;-60
2021/05/16 16:28:48;;;;;;;5.68;1.23;;;21.70;55.90;;;;;;5035574;28;20033;-58
2021/05/16 16:31:14;;;;;;;5.28;1.00;;;21.60;54.90;;;;;;5035667;28;20049;-56
2021/05/16 16:33:40;;;;;;;8.65;2.08;;;21.60;55.10;;;;;;5053005;28;20033;-58
2021/05/16 16:36:06;;;;;;;43.42;14.68;;;21.60;55.10;;;;;;5055458;28;20040;-57
2021/05/16 16:38:32;;;;;;;44.13;15.00;;;21.70;56.00;;;;;;5039398;28;20035;-58
2021/05/16 16:40:57;;;;;;;39.50;12.27;;;21.70;55.30;;;;;;5035060;28;20352;-55
2021/05/16 16:43:23;;;;;;;38.63;13.15;;;21.60;55.20;;;;;;5035385;28;20021;-58
2021/05/16 16:45:49;;;;;;;25.17;10.75;;;21.60;55.10;;;;;;5035491;28;20037;-56
2021/05/16 16:48:15;;;;;;;33.50;10.73;;;21.60;55.20;;;;;;5043512;28;20025;-57
2021/05/16 16:50:40;;;;;;;30.15;10.05;;;21.60;55.10;;;;;;5054565;28;20029;-60
2021/05/16 16:53:06;;;;;;;25.83;8.73;;;21.70;55.20;;;;;;5054101;28;20029;-58
2021/05/16 16:55:32;;;;;;;21.13;7.80;;;21.60;55.20;;;;;;5054479;28;20021;-59
2021/05/16 16:58:00;;;;;;;30.30;9.55;;;21.60;55.20;;;;;;5054852;28;20021;-58
2021/05/16 17:00:26;;;;;;;22.48;8.55;;;21.60;55.40;;;;;;5055250;28;20029;-59
2021/05/16 17:02:52;;;;;;;17.98;7.53;;;21.60;55.50;;;;;;5054752;28;20420;-60
2021/05/16 17:05:19;;;;;;;21.10;7.07;;;21.70;55.70;;;;;;5054473;28;20108;-61
2021/05/16 17:07:48;;;;;;;18.13;6.65;;;21.60;55.60;;;;;;5054797;28;20025;-60
2021/05/16 17:10:19;;;;;;;18.90;6.20;;;21.60;55.70;;;;;;5054042;28;20444;-60
2021/05/16 17:12:46;;;;;;;15.85;5.78;;;21.70;56.00;;;;;;5054385;28;20359;-61
2021/05/16 17:15:13;;;;;;;15.98;4.97;;;21.60;56.10;;;;;;5054511;28;20059;-57
2021/05/16 17:17:39;;;;;;;13.70;4.80;;;21.70;56.30;;;;;;5054302;28;20082;-58
2021/05/16 17:20:07;;;;;;;14.85;5.88;;;21.60;56.20;;;;;;5054280;28;20035;-59
2021/05/16 17:22:33;;;;;;;14.88;5.50;;;21.70;56.30;;;;;;5054003;28;20469;-54
2021/05/16 17:24:59;;;;;;;17.30;6.32;;;21.60;56.30;;;;;;5054483;28;20087;-59
2021/05/16 17:27:25;;;;;;;16.08;5.82;;;21.60;56.50;;;;;;5054177;28;20364;-60
2021/05/16 17:29:50;;;;;;;15.25;5.55;;;21.70;56.90;;;;;;5053990;28;20040;-58
2021/05/16 17:32:16;;;;;;;15.35;6.20;;;21.70;57.30;;;;;;5054837;28;20028;-59
2021/05/16 17:34:41;;;;;;;13.98;5.43;;;21.70;57.70;;;;;;5054044;28;20032;-58
2021/05/16 17:37:07;;;;;;;14.48;6.00;;;21.70;58.10;;;;;;5053864;28;20102;-58
2021/05/16 17:39:32;;;;;;;17.77;5.65;;;21.70;58.30;;;;;;5054268;28;20127;-58
2021/05/16 17:41:58;;;;;;;13.32;5.38;;;21.70;58.50;;;;;;5053982;28;20029;-52
2021/05/16 17:44:26;;;;;;;15.90;5.28;;;21.70;58.90;;;;;;5054113;28;20096;-57
2021/05/16 17:46:51;;;;;;;15.45;5.60;;;21.70;58.90;;;;;;5053777;28;20025;-55
2021/05/16 17:49:17;;;;;;;11.70;5.28;;;21.70;59.00;;;;;;5053946;28;20333;-57
2021/05/16 17:51:43;;;;;;;13.75;4.68;;;21.70;59.20;;;;;;5053953;28;20456;-53
2021/05/16 17:54:09;;;;;;;13.73;4.78;;;21.70;59.30;;;;;;5054040;28;20098;-55
2021/05/16 17:56:35;;;;;;;13.20;4.80;;;21.70;59.30;;;;;;5054167;28;20421;-57
2021/05/16 17:59:02;;;;;;;13.63;4.45;;;21.70;59.40;;;;;;5053707;28;20047;-58
2021/05/16 18:01:28;;;;;;;12.77;5.50;;;21.60;59.40;;;;;;5053770;28;20060;-58
2021/05/16 18:03:54;;;;;;;16.95;4.63;;;21.70;59.50;;;;;;5053675;28;20060;-64
2021/05/16 18:06:20;;;;;;;10.85;4.88;;;21.70;59.50;;;;;;5053289;28;20044;-59
2021/05/16 18:08:45;;;;;;;16.60;5.25;;;21.70;59.60;;;;;;5054290;28;20029;-59
2021/05/16 18:11:11;;;;;;;11.52;4.95;;;21.70;59.60;;;;;;5053394;28;20033;-57
2021/05/16 18:13:37;;;;;;;9.55;3.67;;;21.60;59.60;;;;;;5053642;28;20025;-56
2021/05/16 18:16:03;;;;;;;12.23;4.68;;;21.60;59.70;;;;;;5053398;28;20025;-60
2021/05/16 18:18:29;;;;;;;14.75;4.45;;;21.70;59.90;;;;;;5053431;28;20032;-60
2021/05/16 18:20:55;;;;;;;12.35;4.20;;;21.70;59.90;;;;;;5053515;28;20032;-59
2021/05/16 18:23:21;;;;;;;13.00;4.53;;;21.70;60.00;;;;;;5052697;28;20025;-59
2021/05/16 18:25:47;;;;;;;9.38;3.65;;;21.60;59.90;;;;;;5053424;28;20063;-57
2021/05/16 18:28:13;;;;;;;12.13;4.20;;;21.60;59.90;;;;;;5053121;28;20063;-58
2021/05/16 18:30:39;;;;;;;10.48;4.80;;;21.60;59.90;;;;;;5052891;28;20362;-54
2021/05/16 18:33:06;;;;;;;8.45;3.65;;;21.60;59.90;;;;;;5053730;28;20032;-52
2021/05/16 18:35:32;;;;;;;14.73;3.55;;;21.60;59.90;;;;;;5052981;28;20439;-56
2021/05/16 18:37:58;;;;;;;7.65;3.20;;;21.60;59.90;;;;;;5053124;28;20040;-54
2021/05/16 18:40:24;;;;;;;8.23;3.40;;;21.60;59.90;;;;;;5053225;28;20355;-56
2021/05/16 18:42:51;;;;;;;6.68;3.42;;;21.60;60.00;;;;;;5053231;28;20036;-53
2021/05/16 18:45:17;;;;;;;8.45;2.97;;;21.60;60.00;;;;;;5053632;28;20328;-54
2021/05/16 18:47:43;;;;;;;10.07;3.88;;;21.60;60.00;;;;;;5052957;28;20463;-55
2021/05/16 18:50:10;;;;;;;7.68;3.22;;;21.50;60.00;;;;;;5053185;28;20033;-59
2021/05/16 18:52:36;;;;;;;6.85;3.80;;;21.60;60.00;;;;;;5053135;28;20439;-60
2021/05/16 18:55:01;;;;;;;10.02;3.55;;;21.60;60.00;;;;;;5052842;28;20032;-59
2021/05/16 18:57:27;;;;;;;9.38;3.40;;;21.60;60.10;;;;;;5053503;28;20388;-59
2021/05/16 18:59:53;;;;;;;8.77;3.20;;;21.50;60.00;;;;;;5053073;28;20440;-57
2021/05/16 19:02:19;;;;;;;8.05;2.97;;;21.50;59.90;;;;;;5052654;28;20032;-57
2021/05/16 19:04:44;;;;;;;9.20;3.30;;;21.50;59.90;;;;;;5053384;28;20025;-57
2021/05/16 19:07:15;;;;;;;7.13;2.88;;;21.50;59.90;;;;;;5052865;28;20329;-56
2021/05/16 19:09:41;;;;;;;9.40;3.40;;;21.50;59.80;;;;;;5053089;28;20017;-60
2021/05/16 19:12:07;;;;;;;6.30;3.13;;;21.50;59.60;;;;;;5052867;28;20087;-59
2021/05/16 19:14:33;;;;;;;8.80;2.80;;;21.50;59.50;;;;;;5052747;28;20036;-59
2021/05/16 19:16:58;;;;;;;8.38;2.45;;;21.50;60.10;;;;;;5054194;28;20033;-58
2021/05/16 19:19:24;;;;;;;6.75;3.13;;;21.50;59.30;;;;;;5056373;28;20111;-57
2021/05/16 19:21:50;;;;;;;6.35;2.45;;;21.50;59.30;;;;;;5045517;28;20036;-57
2021/05/16 19:24:15;;;;;;;9.45;3.08;;;21.40;59.20;;;;;;5036235;28;20094;-57
2021/05/16 19:26:41;;;;;;;8.65;2.30;;;21.40;59.30;;;;;;5036603;28;20044;-59
2021/05/16 19:29:07;;;;;;;10.73;3.20;;;21.40;59.30;;;;;;5036530;28;20025;-56
2021/05/16 19:31:34;;;;;;;8.70;2.92;;;21.40;59.30;;;;;;5036412;28;20394;-57
2021/05/16 19:34:00;;;;;;;9.75;3.10;;;21.40;59.30;;;;;;5036464;28;20441;-57
2021/05/16 19:36:25;;;;;;;9.68;3.38;;;21.40;59.40;;;;;;5036382;28;20083;-59
2021/05/16 19:38:51;;;;;;;9.35;3.25;;;21.40;59.40;;;;;;5036319;28;20037;-61
2021/05/16 19:41:17;;;;;;;7.85;2.50;;;21.40;59.60;;;;;;5036317;28;20105;-58
2021/05/16 19:43:42;;;;;;;12.25;2.80;;;21.40;59.60;;;;;;5046064;28;20021;-59
2021/05/16 19:46:08;;;;;;;6.68;2.90;;;21.40;59.60;;;;;;5056690;28;20025;-61
2021/05/16 19:48:33;;;;;;;10.75;2.58;;;21.40;59.50;;;;;;5056114;28;20036;-60
2021/05/16 19:51:03;;;;;;;11.00;3.17;;;21.40;59.50;;;;;;5038401;28;20336;-61
2021/05/16 19:53:28;;;;;;;4.80;2.13;;;21.40;59.50;;;;;;5038853;28;20024;-60
2021/05/16 19:55:54;;;;;;;6.05;2.47;;;21.40;59.40;;;;;;5055815;28;20087;-60
2021/05/16 19:58:20;;;;;;;7.53;2.63;;;21.40;59.40;;;;;;5055958;28;20033;-60
2021/05/16 20:00:46;;;;;;;10.18;2.55;;;21.40;59.30;;;;;;5055507;28;20025;-56
2021/05/16 20:03:11;;;;;;;7.68;2.03;;;21.40;59.30;;;;;;5055494;28;20170;-63
2021/05/16 20:05:37;;;;;;;5.07;2.60;;;21.40;59.30;;;;;;5056194;28;20025;-59
2021/05/16 20:08:03;;;;;;;6.18;2.63;;;21.40;59.30;;;;;;5055635;28;20359;-60
2021/05/16 20:10:29;;;;;;;5.05;2.13;;;21.40;59.30;;;;;;5056259;28;20025;-57
2021/05/16 20:12:55;;;;;;;4.82;1.90;;;21.40;59.20;;;;;;5055195;28;20178;-60
2021/05/16 20:15:20;;;;;;;9.45;2.30;;;21.40;59.20;;;;;;5055515;28;20036;-58
2021/05/16 20:17:46;;;;;;;5.13;1.98;;;21.40;59.20;;;;;;5056059;28;20036;-57
2021/05/16 20:20:16;;;;;;;6.22;2.15;;;21.40;59.20;;;;;;5055392;28;20032;-55
2021/05/16 20:22:42;;;;;;;6.20;2.10;;;21.40;59.20;;;;;;5055763;28;20025;-60
2021/05/16 20:25:10;;;;;;;3.53;1.80;;;21.40;59.20;;;;;;5055615;28;20364;-59
2021/05/16 20:27:40;;;;;;;4.75;2.10;;;21.40;59.20;;;;;;5054368;28;20459;-59
2021/05/16 20:30:14;;;;;;;13.13;2.72;;;21.40;59.20;;;;;;5055541;28;20056;-58
2021/05/16 20:32:47;;;;;;;9.30;1.95;;;21.40;59.00;;;;;;5055306;28;20111;-58
2021/05/16 20:35:14;;;;;;;3.28;1.42;;;21.40;58.50;;;;;;5055326;28;20033;-56
2021/05/16 20:37:42;;;;;;;9.65;1.95;;;21.30;57.90;;;;;;5055089;28;20420;-57
2021/05/16 20:40:13;;;;;;;15.25;2.40;;;21.40;57.80;;;;;;5054440;28;20116;-62
2021/05/16 20:42:41;;;;;;;11.05;2.20;;;21.30;58.20;;;;;;5053365;28;20048;-59
2021/05/16 20:45:09;;;;;;;13.32;2.47;;;21.30;58.40;;;;;;5055122;28;20108;-60
2021/05/16 20:47:35;;;;;;;9.32;2.25;;;21.30;58.40;;;;;;5054682;28;20029;-57
2021/05/16 20:50:00;;;;;;;5.75;1.75;;;21.40;58.40;;;;;;5055193;28;20025;-61
2021/05/16 20:52:26;;;;;;;6.72;1.58;;;21.30;58.40;;;;;;5054778;28;20116;-60
2021/05/16 20:54:51;;;;;;;10.65;2.10;;;21.30;58.40;;;;;;5055303;28;20028;-59
2021/05/16 20:57:17;;;;;;;6.30;2.03;;;21.30;58.40;;;;;;5054603;28;20063;-57
2021/05/16 20:59:42;;;;;;;9.95;1.70;;;21.30;58.50;;;;;;5054564;28;20029;-54
2021/05/16 21:02:08;;;;;;;7.15;1.70;;;21.30;59.10;;;;;;5054951;28;20052;-56
2021/05/16 21:04:33;;;;;;;10.20;2.30;;;21.30;58.40;;;;;;5054451;28;20057;-58
2021/05/16 21:07:00;;;;;;;5.80;1.70;;;21.30;58.40;;;;;;5054996;28;20029;-54
2021/05/16 21:09:28;;;;;;;9.43;2.00;;;21.30;58.40;;;;;;5054698;28;20032;-56
2021/05/16 21:11:54;;;;;;;8.85;1.73;;;21.30;58.30;;;;;;5054209;28;20057;-59
2021/05/16 21:14:19;;;;;;;3.10;1.75;;;21.30;58.20;;;;;;5055054;28;20440;-59
2021/05/16 21:16:45;;;;;;;6.55;1.60;;;21.30;58.10;;;;;;5054364;28;20025;-58
2021/05/16 21:19:10;;;;;;;4.78;1.90;;;21.30;58.10;;;;;;5054582;28;20025;-59
2021/05/16 21:21:36;;;;;;;9.20;2.15;;;21.20;58.00;;;;;;5054544;28;20641;-54
2021/05/16 21:24:02;;;;;;;7.65;1.88;;;21.30;58.00;;;;;;5054347;28;20036;-59
2021/05/16 21:26:27;;;;;;;4.85;1.30;;;21.20;57.90;;;;;;5054709;28;20024;-60
2021/05/16 21:28:53;;;;;;;3.90;1.30;;;21.20;57.80;;;;;;5054299;28;20021;-56
2021/05/16 21:31:19;;;;;;;6.85;1.35;;;21.20;57.80;;;;;;5053807;28;20057;-56
2021/05/16 21:33:44;;;;;;;3.88;1.30;;;21.20;57.80;;;;;;5054311;28;20021;-58
2021/05/16 21:36:10;;;;;;;4.57;1.42;;;21.20;57.70;;;;;;5053649;28;20035;-56
2021/05/16 21:38:35;;;;;;;3.83;1.30;;;21.20;57.70;;;;;;5054557;28;20025;-58
2021/05/16 21:41:01;;;;;;;3.15;1.10;;;21.20;57.70;;;;;;5053485;28;20029;-59
2021/05/16 21:43:27;;;;;;;3.17;1.30;;;21.20;57.60;;;;;;5054298;28;20036;-60
2021/05/16 21:45:53;;;;;;;6.05;1.60;;;21.20;57.60;;;;;;5053930;28;20355;-55
2021/05/16 21:48:18;;;;;;;3.30;1.23;;;21.20;57.60;;;;;;5053774;28;20024;-61
2021/05/16 21:50:44;;;;;;;3.67;1.40;;;21.20;57.60;;;;;;5054271;28;20094;-54
2021/05/16 21:53:10;;;;;;;2.55;1.52;;;21.10;57.50;;;;;;5053768;28;20025;-57
2021/05/16 21:55:36;;;;;;;2.78;1.30;;;21.20;57.40;;;;;;5054317;28;20025;-58
2021/05/16 21:58:01;;;;;;;3.58;1.20;;;21.20;57.40;;;;;;5054115;28;20032;-55
2021/05/16 22:00:32;;;;;;;4.85;1.38;;;21.10;57.30;;;;;;5035608;28;20424;-59
2021/05/16 22:02:58;;;;;;;2.65;1.20;;;21.10;57.30;;;;;;5054168;28;20087;-56
2021/05/16 22:05:25;;;;;;;1.50;1.08;;;21.10;57.30;;;;;;5053563;28;20032;-59
2021/05/16 22:07:54;;;;;;;2.47;1.30;;;21.10;57.20;;;;;;5053602;28;20493;-55
2021/05/16 22:10:21;;;;;;;3.17;1.30;;;21.10;57.20;;;;;;5053962;28;20026;-60
2021/05/16 22:12:46;;;;;;;2.78;1.20;;;21.10;57.10;;;;;;5053406;28;20047;-60
2021/05/16 22:15:12;;;;;;;3.22;1.50;;;21.10;57.10;;;;;;5053795;28;20112;-59
2021/05/16 22:17:40;;;;;;;3.55;1.75;;;21.10;57.10;;;;;;5053463;28;20056;-58
2021/05/16 22:20:06;;;;;;;2.65;1.40;;;21.10;57.10;;;;;;5053642;28;20078;-57
2021/05/16 22:22:32;;;;;;;2.65;1.10;;;21.10;57.00;;;;;;5053777;28;20477;-59
2021/05/16 22:24:57;;;;;;;4.53;1.38;;;21.10;57.00;;;;;;5053314;28;20021;-57
2021/05/16 22:27:23;;;;;;;2.45;1.38;;;21.10;56.90;;;;;;5053746;28;20040;-53
2021/05/16 22:29:49;;;;;;;2.30;1.00;;;21.10;56.90;;;;;;5052707;28;20025;-62
2021/05/16 22:32:15;;;;;;;2.35;1.05;;;21.00;56.80;;;;;;5053487;28;20024;-58
2021/05/16 22:34:41;;;;;;;1.77;1.00;;;21.00;56.80;;;;;;5035968;28;20114;-58
2021/05/16 22:37:07;;;;;;;3.33;1.17;;;21.00;56.70;;;;;;5052800;28;20467;-55
2021/05/16 22:39:32;;;;;;;2.42;1.05;;;21.00;56.70;;;;;;5053741;28;20149;-59
2021/05/16 22:41:58;;;;;;;1.98;0.80;;;21.00;56.70;;;;;;5053366;28;20352;-59
2021/05/16 22:44:23;;;;;;;5.95;1.17;;;21.00;56.60;;;;;;5053209;28;20033;-57
2021/05/16 22:46:50;;;;;;;3.17;0.95;;;21.00;56.60;;;;;;5053600;28;20360;-59
2021/05/16 22:49:16;;;;;;;1.85;0.90;;;21.00;56.50;;;;;;5053033;28;20028;-57
2021/05/16 22:51:42;;;;;;;2.15;1.00;;;21.00;56.50;;;;;;5053981;28;20514;-59
2021/05/16 22:54:08;;;;;;;2.38;0.98;;;21.00;56.50;;;;;;5039502;28;20466;-57
2021/05/16 22:56:34;;;;;;;3.20;1.63;;;21.00;56.50;;;;;;5056627;28;20355;-59
2021/05/16 22:59:01;;;;;;;1.55;1.10;;;21.00;56.50;;;;;;5057166;28;20043;-57
2021/05/16 23:01:26;;;;;;;2.08;1.02;;;21.00;56.50;;;;;;5056908;28;20394;-61
2021/05/16 23:03:52;;;;;;;1.75;0.90;;;21.00;56.40;;;;;;5057109;28;20032;-63
2021/05/16 23:06:18;;;;;;;2.50;0.88;;;21.00;56.40;;;;;;5056954;28;20116;-57
2021/05/16 23:08:43;;;;;;;1.33;1.00;;;21.00;56.40;;;;;;5056992;28;20059;-58
2021/05/16 23:11:09;;;;;;;1.55;1.05;;;20.90;56.40;;;;;;5057105;28;20094;-58
2021/05/16 23:13:35;;;;;;;1.35;0.90;;;20.90;56.30;;;;;;5056547;28;20025;-57
2021/05/16 23:16:00;;;;;;;3.58;1.08;;;20.90;56.30;;;;;;5057222;28;20399;-59
2021/05/16 23:18:27;;;;;;;1.95;0.95;;;20.90;56.30;;;;;;5056922;28;20067;-59
2021/05/16 23:20:53;;;;;;;0.88;0.73;;;21.00;56.30;;;;;;5039304;28;20029;-59
2021/05/16 23:23:18;;;;;;;1.02;0.80;;;20.90;56.20;;;;;;5057009;28;20435;-57
2021/05/16 23:25:44;;;;;;;2.45;1.27;;;20.90;56.10;;;;;;5056470;28;20067;-60
2021/05/16 23:28:10;;;;;;;1.55;0.90;;;20.90;56.10;;;;;;5056775;28;20449;-59
2021/05/16 23:30:37;;;;;;;1.20;1.00;;;20.90;56.10;;;;;;5056406;28;20064;-60
2021/05/16 23:33:03;;;;;;;3.03;1.08;;;20.90;56.10;;;;;;5056325;28;20712;-57
2021/05/16 23:35:30;;;;;;;1.40;0.80;;;20.90;56.10;;;;;;5056907;28;20036;-55
2021/05/16 23:37:56;;;;;;;2.30;0.93;;;20.90;56.10;;;;;;5056042;28;20018;-55
2021/05/16 23:40:22;;;;;;;2.13;1.10;;;20.90;56.10;;;;;;5056632;28;20052;-61
2021/05/16 23:42:48;;;;;;;2.13;1.00;;;20.90;56.10;;;;;;5055919;28;20038;-56
2021/05/16 23:45:15;;;;;;;1.35;0.88;;;20.90;56.10;;;;;;5056324;28;20033;-55
2021/05/16 23:47:40;;;;;;;1.08;0.70;;;20.90;56.00;;;;;;5056538;28;20025;-53
2021/05/16 23:50:08;;;;;;;0.98;0.77;;;20.90;56.00;;;;;;5056104;28;20435;-56
2021/05/16 23:52:34;;;;;;;1.17;0.88;;;20.90;56.10;;;;;;5056469;28;20025;-60
2021/05/16 23:54:59;;;;;;;0.85;0.70;;;20.90;56.10;;;;;;5056022;28;20029;-58
2021/05/16 23:57:25;;;;;;;1.85;0.85;;;20.80;56.00;;;;;;5055676;28;20025;-57
2021/05/16 23:59:52;;;;;;;1.98;0.90;;;20.90;56.10;;;;;;5056134;28;20419;-57
